Terminal Aerodrome Forecast
Issued by NWS Topeka, KS

Home | Current Version | Previous Version | Text Only | Print | Product List | Glossary Off
Versions: 1 2 3 4 5 6 7 8 9 10 11 12 13 14 15

472
FTUS43 KTOP 140902 AAA
TAFTOP
TAF AMD
KTOP 140902Z 1409/1506 33007KT P6SM OVC035
     FM141800 31006KT P6SM BKN050=

USA.gov is the U.S. government's official web portal to all federal, state and local government web resources and services.